Skip Navigation Links Skip Navigation Links

Current Weather

Boca Raton, Fla.

For information only: do not use for flight planning or navigation.
Latest weather
Observation time Thursday, January 27, 2022 8:53 PM EST
Local time Friday, January 28, 2022 12:12 AM EST
Flight conditions Visual Meteorological Conditions
Winds
Wind direction North-Northwest (340°)
Wind speed 7 mph
Visibility 10 mi.
Sky condition
Ceiling unlimited
Sky clear
Temperature 70°F
Dewpoint 64°F
Altimeter 30.04 in.Hg
Derived measurements
Relative humidity 83%
Density altitude 860 ft.
METAR KBCT 280153Z 34006KT 10SM CLR 21/18 A3004 RMK AIRPORT CLSD.

Settings

Location code

InnerDrive.Weather 4.0.6770.0 Release CLR 4.0.30319.42000
Copyright ©2018 Inner Drive Technology. All rights reserved. Portions Copyright ©1986-2018 David Braverman.

Find weather

Site navigation


Skip Navigation Links

Place info

Page info

PayPal - The safer, easier way to pay online!

Return home.

Copyright ©2022 Inner Drive Technology. Purveyors of fine, hand-crafted computer software. Page printed 2022-01-28T05:12:31 UTC.